Domov               UVHVVR             MKGP            O straneh              
ZDRAVSTVENO VARSTVO RASTLIN
  MREŽA AGROMET. POSTAJ
 ► PROGNOSTIČNA OBVESTILA
AGROMETEOROLOŠKI PODATKI -
ARSO
OBVLADOVANJE TVEGANJ ZARADI
NEUGODNIH VREMENSKIH RAZMER
  ► NARAVNE NESREČE
  ► SUŠA/MOČA
  ► NAMAKANJE
  ► ŽLED (gozdarstvo)
KARTOGRAFSKI PRIKAZI
SPLETNE POVEZAVE
PROJEKTI IN PUBLIKACIJE

AGROMETEOROLOŠKA MREŽA: VREMENSKE POSTAJE IN FENOLOŠKA OPAZOVANJA

Pregled podatkov za lokacijo Kamnik, meteorološka postaja 25045

Pregled senzorjev na lokaciji

ID Ime Zadnja
vrednost
Datum
zadnje
spremembe
Tip
senzorja
377 Omočenost lista (U) 2 U 25.6.2017 03:30 A730WET
378 Padavine 0.2 mm (mm) 0 mm 25.6.2017 03:30 Generic 0.2 mm
379 Temperatura 2 m ( °C) 20,12 °C 25.6.2017 03:30 Generic -40 - +60 °C
380 Relativna vlaga 2 m (% RH) 97,05 % RH 25.6.2017 03:30 Generic 0 - 100 %

Pregled podatkov zadnjih 24 ur

Zap.
št.
Datum in čas Kamnik
Omočenost
lista
Padavine
0.2
mm
Relativna
vlaga
2
m
Temperatura
2
m
0 25.6.2017 02:30 2 0 97,05 20,12
1 25.6.2017 02:00 2 0 97,05 20,17
2 25.6.2017 01:30 1 0 94,55 20,68
3 25.6.2017 01:00 1 0 95,65 20,61
4 25.6.2017 00:30 1 0 92,99 21,15
5 25.6.2017 00:00 1 0 91,97 21,44
6 24.6.2017 23:30 1 0 92,01 21,42
7 24.6.2017 23:00 1 0 93,6 21,37
8 24.6.2017 22:30 1 0 91,26 21,78
9 24.6.2017 22:00 1 0 89,5 22,22
10 24.6.2017 21:30 1 0 86,47 22,47
11 24.6.2017 21:00 0 0 86,57 23,03
12 24.6.2017 20:30 0 0 86,74 23,42
13 24.6.2017 20:00 0 0 85,35 23,81
14 24.6.2017 19:30 0 0 86,37 23,71
15 24.6.2017 19:00 0 0 81,88 24,76
16 24.6.2017 18:30 0 0 76,48 26,06
17 24.6.2017 18:00 0 0 73,41 26,2
18 24.6.2017 17:30 1 0 73,55 25,89
19 24.6.2017 17:00 0 0 74,33 25,08
20 24.6.2017 16:30 0 0 74,77 24,66
21 24.6.2017 16:00 0 0 69,47 24,57
22 24.6.2017 15:30 5 0 62,1 24,96
23 24.6.2017 15:00 4 0 67,28 27,11
24 24.6.2017 14:30 0 0 51,62 29,89
25 24.6.2017 14:00 0 0 43,98 31,72
26 24.6.2017 13:30 0 0 40,88 32,36
27 24.6.2017 13:00 0 0 39,71 31,65
28 24.6.2017 12:30 0 0 42,44 31,5
29 24.6.2017 12:00 0 0 44,42 30,99
30 24.6.2017 11:30 0 0 47,99 30,33
31 24.6.2017 11:00 0 0 49,79 29,89
32 24.6.2017 10:30 0 0 56,53 29,38
33 24.6.2017 10:00 0 0 59,73 28,3
34 24.6.2017 09:30 0 0 62,42 27,59
35 24.6.2017 09:00 0 0 66,18 26,84
36 24.6.2017 08:30 0 0 65,2 26,67
37 24.6.2017 08:00 0 0 69,43 25,54
38 24.6.2017 07:30 0 0 73,16 24,08
39 24.6.2017 07:00 10 0 76,68 22,88
40 24.6.2017 06:30 10 0 79,73 22,08
41 24.6.2017 06:00 10 0 86,5 20,27
42 24.6.2017 05:30 10 0 93,92 18,88
43 24.6.2017 05:00 10 0 97,29 18,02
44 24.6.2017 04:30 10 0 96,75 18,12
45 24.6.2017 04:00 10 0 97,8 18,1
© 2011 Ministrstvo za kmetijstvo, gozdarstvo in prehrano. Vse pravice pridržane.